Time;durP1;ratioP1;P1;durP2;ratioP2;P2;SDS_P1;SDS_P2;PMS_P1;PMS_P2;Temp;Humidity;BMP_temperature;BMP_pressure;BME280_temperature;BME280_humidity;BME280_pressure;Samples;Min_cycle;Max_cycle;Signal;HPM_P1;HPM_P2
2023/04/19 00:02:03;;;;;;;;;;;17.90;46.80;;;;;;4988834;28;19922;-54
2023/04/19 00:04:28;;;;;;;;;;;18.00;46.90;;;;;;4986516;28;19920;-55
2023/04/19 00:06:54;;;;;;;;;;;17.90;46.80;;;;;;4986645;28;19925;-54
2023/04/19 00:09:19;;;;;;;;;;;17.90;46.70;;;;;;4979411;28;20001;-54
2023/04/19 00:11:45;;;;;;;;;;;17.90;46.70;;;;;;4986596;28;20330;-55
2023/04/19 00:14:10;;;;;;;;;;;17.90;46.80;;;;;;4995242;28;19920;-54
2023/04/19 00:16:36;;;;;;;;;;;17.80;46.70;;;;;;5012098;28;19913;-55
2023/04/19 00:19:01;;;;;;;;;;;17.80;46.70;;;;;;4992681;28;19910;-55
2023/04/19 00:21:27;;;;;;;;;;;17.80;46.60;;;;;;4991996;28;19925;-55
2023/04/19 00:23:52;;;;;;;;;;;17.80;46.50;;;;;;4987209;28;19960;-55
2023/04/19 00:26:18;;;;;;;;;;;17.80;46.60;;;;;;4987975;28;20397;-54
2023/04/19 00:28:44;;;;;;;;;;;17.80;46.30;;;;;;4984999;28;19964;-54
2023/04/19 00:31:09;;;;;;;;;;;17.80;46.40;;;;;;5011694;28;19918;-55
2023/04/19 00:33:35;;;;;;;;;;;17.80;46.40;;;;;;4990272;28;19968;-54
2023/04/19 00:36:00;;;;;;;;;;;17.80;46.30;;;;;;4994225;28;19964;-55
2023/04/19 00:38:26;;;;;;;;;;;17.80;46.40;;;;;;4992485;28;19909;-54
2023/04/19 00:40:51;;;;;;;;;;;17.70;46.20;;;;;;4993676;28;19914;-55
2023/04/19 00:43:18;;;;;;;;;;;17.70;46.30;;;;;;4993429;28;19910;-55
2023/04/19 00:45:43;;;;;;;;;;;17.80;46.30;;;;;;5002028;28;19917;-55
2023/04/19 00:48:09;;;;;;;;;;;17.70;46.20;;;;;;5012866;28;20660;-55
2023/04/19 00:50:34;;;;;;;;;;;17.70;46.20;;;;;;5010055;28;20378;-54
2023/04/19 00:53:00;;;;;;;;;;;17.70;46.30;;;;;;4992553;28;19913;-55
2023/04/19 00:55:25;;;;;;;;;;;17.70;46.10;;;;;;4993491;28;20011;-55
2023/04/19 00:57:51;;;;;;;;;;;17.70;46.00;;;;;;4993102;28;19910;-54
2023/04/19 01:00:16;;;;;;;;;;;17.60;46.10;;;;;;5003350;28;19920;-55
2023/04/19 01:02:42;;;;;;;;;;;17.60;46.20;;;;;;4991695;28;20951;-55
2023/04/19 01:05:08;;;;;;;;;;;17.60;46.00;;;;;;4988715;28;19953;-55
2023/04/19 01:07:34;;;;;;;;;;;17.60;46.10;;;;;;4983919;28;20441;-54
2023/04/19 01:09:59;;;;;;;;;;;17.60;46.00;;;;;;4984842;28;19932;-54
2023/04/19 01:12:25;;;;;;;;;;;17.70;46.00;;;;;;5015479;28;19997;-54
2023/04/19 01:14:50;;;;;;;;;;;17.70;45.90;;;;;;4985044;28;19914;-56
2023/04/19 01:17:16;;;;;;;;;;;17.70;45.90;;;;;;4985729;28;20289;-54
2023/04/19 01:19:42;;;;;;;;;;;17.80;45.90;;;;;;4984953;28;20363;-55
2023/04/19 01:22:08;;;;;;;;;;;17.80;45.80;;;;;;4985981;28;19997;-55
2023/04/19 01:24:33;;;;;;;;;;;18.00;45.80;;;;;;4984316;28;20390;-55
2023/04/19 01:26:59;;;;;;;;;;;18.10;45.80;;;;;;4984890;28;20302;-55
2023/04/19 01:29:24;;;;;;;;;;;18.20;45.60;;;;;;5014334;28;19957;-54
2023/04/19 01:31:52;;;;;;;;;;;18.40;45.30;;;;;;4982403;28;19914;-54
2023/04/19 01:34:18;;;;;;;;;;;18.50;45.00;;;;;;5007060;28;19914;-55
2023/04/19 01:36:43;;;;;;;;;;;18.60;44.90;;;;;;4985265;28;19960;-55
2023/04/19 01:39:09;;;;;;;;;;;18.70;44.70;;;;;;4984759;28;20413;-54
2023/04/19 01:41:35;;;;;;;;;;;18.70;44.60;;;;;;4986478;28;19988;-55
2023/04/19 01:44:00;;;;;;;;;;;18.70;44.50;;;;;;4989274;28;20285;-55
2023/04/19 01:46:26;;;;;;;;;;;18.70;44.10;;;;;;4990326;28;20389;-55
2023/04/19 01:48:51;;;;;;;;;;;18.70;44.00;;;;;;4987628;28;20392;-55
2023/04/19 01:51:17;;;;;;;;;;;18.70;44.00;;;;;;4989795;28;20294;-55
2023/04/19 01:53:42;;;;;;;;;;;18.80;44.10;;;;;;4988390;28;20054;-55
2023/04/19 01:56:08;;;;;;;;;;;18.70;44.10;;;;;;4988648;28;20327;-55
2023/04/19 01:58:33;;;;;;;;;;;18.70;44.10;;;;;;4988586;28;19917;-55
2023/04/19 02:00:58;;;;;;;;;;;18.70;44.10;;;;;;4989286;28;19918;-54
2023/04/19 02:03:24;;;;;;;;;;;18.70;44.00;;;;;;4987899;28;19929;-54
2023/04/19 02:05:49;;;;;;;;;;;18.80;44.10;;;;;;4992099;28;20405;-55
2023/04/19 02:08:15;;;;;;;;;;;18.80;43.90;;;;;;4989519;28;20305;-55
2023/04/19 02:10:40;;;;;;;;;;;18.80;43.90;;;;;;4988497;28;19965;-55
2023/04/19 02:13:06;;;;;;;;;;;18.80;43.80;;;;;;4987987;28;19914;-55
2023/04/19 02:15:31;;;;;;;;;;;18.80;43.70;;;;;;4988668;28;19926;-54
2023/04/19 02:17:58;;;;;;;;;;;18.80;43.50;;;;;;4989067;28;19977;-55
2023/04/19 02:20:24;;;;;;;;;;;18.80;43.50;;;;;;4987789;28;19965;-55
2023/04/19 02:22:49;;;;;;;;;;;18.90;43.60;;;;;;4990736;28;19968;-54
2023/04/19 02:25:15;;;;;;;;;;;18.80;43.50;;;;;;4988885;28;20382;-55
2023/04/19 02:27:40;;;;;;;;;;;18.80;43.60;;;;;;4987366;28;19921;-55
2023/04/19 02:30:06;;;;;;;;;;;18.70;43.60;;;;;;4985859;28;19917;-55
2023/04/19 02:32:32;;;;;;;;;;;18.70;43.80;;;;;;4990176;28;19921;-55
2023/04/19 02:34:57;;;;;;;;;;;18.70;43.80;;;;;;4995700;28;19910;-55
2023/04/19 02:37:23;;;;;;;;;;;18.70;43.90;;;;;;4995895;28;19953;-55
2023/04/19 02:39:48;;;;;;;;;;;18.60;44.00;;;;;;4995377;28;19933;-54
2023/04/19 02:42:14;;;;;;;;;;;18.50;44.70;;;;;;4995761;28;19914;-55
2023/04/19 02:44:39;;;;;;;;;;;18.50;44.10;;;;;;4992822;28;19914;-54
2023/04/19 02:47:05;;;;;;;;;;;18.40;44.20;;;;;;4995826;28;19910;-55
2023/04/19 02:49:35;;;;;;;;;;;18.40;44.40;;;;;;4994136;28;20293;-54
2023/04/19 02:52:01;;;;;;;;;;;18.40;44.40;;;;;;5000011;28;19914;-55
2023/04/19 02:54:26;;;;;;;;;;;18.30;44.60;;;;;;5011707;28;19920;-55
2023/04/19 02:56:52;;;;;;;;;;;18.30;44.60;;;;;;5015287;28;19910;-55
2023/04/19 02:59:17;;;;;;;;;;;18.30;44.70;;;;;;5001398;28;20393;-55
2023/04/19 03:01:43;;;;;;;;;;;18.40;44.70;;;;;;4991590;28;20246;-55
2023/04/19 03:04:08;;;;;;;;;;;18.40;44.70;;;;;;4988879;28;20383;-55
2023/04/19 03:06:33;;;;;;;;;;;18.40;44.80;;;;;;4988557;28;19922;-54
2023/04/19 03:08:59;;;;;;;;;;;18.40;45.10;;;;;;4991076;28;19914;-55
2023/04/19 03:11:25;;;;;;;;;;;18.50;44.60;;;;;;4992646;28;19949;-55
2023/04/19 03:13:50;;;;;;;;;;;18.60;44.60;;;;;;4987516;28;19968;-54
2023/04/19 03:16:16;;;;;;;;;;;18.60;44.50;;;;;;4988051;28;19914;-54
2023/04/19 03:18:41;;;;;;;;;;;18.60;44.40;;;;;;4994152;28;19910;-55
2023/04/19 03:21:08;;;;;;;;;;;18.60;44.30;;;;;;4988234;28;19993;-54
2023/04/19 03:23:33;;;;;;;;;;;18.60;44.30;;;;;;4986696;28;20037;-54
2023/04/19 03:25:59;;;;;;;;;;;18.60;44.40;;;;;;4986301;28;19922;-55
2023/04/19 03:28:24;;;;;;;;;;;18.60;44.40;;;;;;5017084;28;19929;-55
2023/04/19 03:30:50;;;;;;;;;;;18.50;44.40;;;;;;4986501;28;19926;-54
2023/04/19 03:33:15;;;;;;;;;;;18.50;44.60;;;;;;4996211;28;19917;-55
2023/04/19 03:35:42;;;;;;;;;;;18.50;44.80;;;;;;5019658;28;19913;-54
2023/04/19 03:38:07;;;;;;;;;;;18.40;44.70;;;;;;4986691;28;20378;-55
2023/04/19 03:40:35;;;;;;;;;;;18.40;45.30;;;;;;4986165;28;19933;-55
2023/04/19 03:43:00;;;;;;;;;;;18.40;44.70;;;;;;4986035;28;19914;-55
2023/04/19 03:45:26;;;;;;;;;;;18.40;44.70;;;;;;4983250;28;20038;-55
2023/04/19 03:47:51;;;;;;;;;;;18.40;44.60;;;;;;4987072;28;19917;-55
2023/04/19 03:50:17;;;;;;;;;;;18.40;44.60;;;;;;4986886;28;19928;-54
2023/04/19 03:52:42;;;;;;;;;;;18.50;44.50;;;;;;4985193;28;19928;-53
2023/04/19 03:55:08;;;;;;;;;;;18.50;45.00;;;;;;4985899;28;19917;-55
2023/04/19 03:57:33;;;;;;;;;;;18.60;44.30;;;;;;4986274;28;19917;-55
2023/04/19 03:59:59;;;;;;;;;;;18.50;44.40;;;;;;5001680;28;20041;-54
2023/04/19 04:02:25;;;;;;;;;;;18.40;44.70;;;;;;4986539;28;20378;-54
2023/04/19 04:04:53;;;;;;;;;;;18.30;44.70;;;;;;4986405;28;20000;-54
2023/04/19 04:07:20;;;;;;;;;;;18.30;44.80;;;;;;4993187;28;19964;-54
2023/04/19 04:09:46;;;;;;;;;;;18.30;44.80;;;;;;4994685;28;19979;-55
2023/04/19 04:12:12;;;;;;;;;;;18.30;44.90;;;;;;4990738;28;19981;-55
2023/04/19 04:14:37;;;;;;;;;;;18.30;44.90;;;;;;4986103;28;19913;-54
2023/04/19 04:17:03;;;;;;;;;;;18.40;45.00;;;;;;4989023;28;19925;-54
2023/04/19 04:19:28;;;;;;;;;;;18.40;44.90;;;;;;5003937;28;20005;-55
2023/04/19 04:21:54;;;;;;;;;;;18.40;44.80;;;;;;4985946;28;20291;-54
2023/04/19 04:24:21;;;;;;;;;;;18.40;44.70;;;;;;4985696;28;19914;-55
2023/04/19 04:26:48;;;;;;;;;;;18.50;44.60;;;;;;4984855;28;19972;-55
2023/04/19 04:29:14;;;;;;;;;;;18.40;44.60;;;;;;4985939;28;20322;-54
2023/04/19 04:31:39;;;;;;;;;;;18.40;44.70;;;;;;4984062;28;19945;-54
2023/04/19 04:34:05;;;;;;;;;;;18.40;44.80;;;;;;4993352;28;19949;-55
2023/04/19 04:36:30;;;;;;;;;;;18.30;44.60;;;;;;4993753;28;19956;-55
2023/04/19 04:38:56;;;;;;;;;;;18.30;44.80;;;;;;5003111;28;20293;-55
2023/04/19 04:41:21;;;;;;;;;;;18.40;44.80;;;;;;5000380;28;19910;-55
2023/04/19 04:43:50;;;;;;;;;;;18.40;44.70;;;;;;4991684;28;19921;-55
2023/04/19 04:46:15;;;;;;;;;;;18.40;44.70;;;;;;5015714;28;19918;-54
2023/04/19 04:48:41;;;;;;;;;;;18.50;44.50;;;;;;5006419;28;19933;-54
2023/04/19 04:51:06;;;;;;;;;;;18.50;44.40;;;;;;4993621;28;19914;-55
2023/04/19 04:53:32;;;;;;;;;;;18.50;44.20;;;;;;4992570;28;19910;-55
2023/04/19 04:55:57;;;;;;;;;;;18.50;44.20;;;;;;4991348;28;19960;-55
2023/04/19 04:58:23;;;;;;;;;;;18.50;44.10;;;;;;4998371;28;20103;-55
2023/04/19 05:00:49;;;;;;;;;;;18.60;44.10;;;;;;5001690;28;19924;-55
2023/04/19 05:03:15;;;;;;;;;;;18.50;44.20;;;;;;4989685;28;19941;-55
2023/04/19 05:05:41;;;;;;;;;;;18.50;43.90;;;;;;4987615;28;19961;-54
2023/04/19 05:08:06;;;;;;;;;;;18.50;44.10;;;;;;4982386;28;20004;-54
2023/04/19 05:10:32;;;;;;;;;;;18.40;44.30;;;;;;4985221;28;19917;-55
2023/04/19 05:12:57;;;;;;;;;;;18.30;44.50;;;;;;4984743;28;19914;-55
2023/04/19 05:15:22;;;;;;;;;;;18.20;44.60;;;;;;4984514;28;19914;-55
2023/04/19 05:17:48;;;;;;;;;;;18.30;44.70;;;;;;4993212;28;19928;-55
2023/04/19 05:20:13;;;;;;;;;;;18.20;44.80;;;;;;5011956;28;19971;-55
2023/04/19 05:22:39;;;;;;;;;;;18.30;44.70;;;;;;5002126;28;20289;-55
2023/04/19 05:25:05;;;;;;;;;;;18.30;44.70;;;;;;4992959;28;19937;-55
2023/04/19 05:27:30;;;;;;;;;;;18.30;44.60;;;;;;4992937;28;20064;-55
2023/04/19 05:29:56;;;;;;;;;;;18.40;44.70;;;;;;4992677;28;19914;-54
2023/04/19 05:32:21;;;;;;;;;;;18.40;44.50;;;;;;4992845;28;19917;-55
2023/04/19 05:34:47;;;;;;;;;;;18.40;44.50;;;;;;4993950;28;19917;-54
2023/04/19 05:37:12;;;;;;;;;;;18.40;44.40;;;;;;4985511;28;19960;-54
2023/04/19 05:39:37;;;;;;;;;;;18.40;44.40;;;;;;4985810;28;19922;-54
2023/04/19 05:42:03;;;;;;;;;;;18.40;44.50;;;;;;4986928;28;19918;-54
2023/04/19 05:44:28;;;;;;;;;;;18.40;44.70;;;;;;4986501;28;20267;-54
2023/04/19 05:46:54;;;;;;;;;;;18.30;44.80;;;;;;4982521;28;20016;-55
2023/04/19 05:49:19;;;;;;;;;;;18.20;44.70;;;;;;4983890;28;19960;-54
2023/04/19 05:51:45;;;;;;;;;;;18.20;44.90;;;;;;4984179;28;20000;-55
2023/04/19 05:54:12;;;;;;;;;;;18.30;44.80;;;;;;4984121;28;20419;-54
2023/04/19 05:56:38;;;;;;;;;;;18.20;44.80;;;;;;4985197;28;20322;-55
2023/04/19 05:59:03;;;;;;;;;;;18.30;44.60;;;;;;4983536;28;20144;-55
2023/04/19 06:01:29;;;;;;;;;;;18.30;44.60;;;;;;4977854;28;19918;-55
2023/04/19 06:03:54;;;;;;;;;;;18.50;44.30;;;;;;4983355;28;19918;-55
2023/04/19 06:06:22;;;;;;;;;;;18.40;44.00;;;;;;4984914;28;19921;-55
2023/04/19 06:08:48;;;;;;;;;;;18.50;44.10;;;;;;4983679;28;19952;-55
2023/04/19 06:11:14;;;;;;;;;;;18.50;43.90;;;;;;4984404;28;20405;-54
2023/04/19 06:13:39;;;;;;;;;;;18.50;43.60;;;;;;4989757;28;20252;-55
2023/04/19 06:16:05;;;;;;;;;;;18.40;43.90;;;;;;4984934;28;20083;-55
2023/04/19 06:18:30;;;;;;;;;;;18.30;44.30;;;;;;4984159;28;19925;-55
2023/04/19 06:20:56;;;;;;;;;;;18.30;44.30;;;;;;4984443;28;19940;-55
2023/04/19 06:23:22;;;;;;;;;;;18.20;44.30;;;;;;4980579;28;20127;-55
2023/04/19 06:25:47;;;;;;;;;;;18.20;44.60;;;;;;4981220;28;20286;-55
2023/04/19 06:28:13;;;;;;;;;;;18.30;44.60;;;;;;4984436;28;19914;-54
2023/04/19 06:30:38;;;;;;;;;;;18.30;44.50;;;;;;4985679;28;19926;-55
2023/04/19 06:33:04;;;;;;;;;;;18.40;44.30;;;;;;4988289;28;19925;-55
2023/04/19 06:35:30;;;;;;;;;;;18.40;44.50;;;;;;4995389;28;19910;-55
2023/04/19 06:37:55;;;;;;;;;;;18.40;44.50;;;;;;4995753;28;19918;-55
2023/04/19 06:40:21;;;;;;;;;;;18.40;44.50;;;;;;4995022;28;19993;-55
2023/04/19 06:42:46;;;;;;;;;;;18.40;44.40;;;;;;4997596;28;19913;-55
2023/04/19 06:45:11;;;;;;;;;;;18.50;44.40;;;;;;5015521;28;19910;-55
2023/04/19 06:47:37;;;;;;;;;;;18.50;44.50;;;;;;5013931;28;19910;-55
2023/04/19 06:50:02;;;;;;;;;;;18.50;44.60;;;;;;4990268;28;19917;-54
2023/04/19 06:52:28;;;;;;;;;;;18.60;44.60;;;;;;4992953;28;19914;-54
2023/04/19 06:54:54;;;;;;;;;;;18.70;44.50;;;;;;5006551;28;19921;-54
2023/04/19 06:57:19;;;;;;;;;;;18.70;44.30;;;;;;4994701;28;19929;-54
2023/04/19 06:59:45;;;;;;;;;;;18.70;44.50;;;;;;4991731;28;19918;-54
2023/04/19 07:02:10;;;;;;;;;;;18.70;44.30;;;;;;4982365;28;19914;-53
2023/04/19 07:04:35;;;;;;;;;;;18.60;44.30;;;;;;4992067;28;19945;-54
2023/04/19 07:07:01;;;;;;;;;;;18.60;44.40;;;;;;4990327;28;19913;-54
2023/04/19 07:09:27;;;;;;;;;;;18.50;44.40;;;;;;4994117;28;19917;-54
2023/04/19 07:11:52;;;;;;;;;;;18.50;44.60;;;;;;4992698;28;20053;-53
2023/04/19 07:14:20;;;;;;;;;;;18.50;44.70;;;;;;4991038;28;19928;-54
2023/04/19 07:16:46;;;;;;;;;;;18.60;44.30;;;;;;4991665;28;19915;-54
2023/04/19 07:19:11;;;;;;;;;;;18.60;44.40;;;;;;4995713;28;20405;-54
2023/04/19 07:21:38;;;;;;;;;;;18.60;44.20;;;;;;5025083;28;19914;-55
2023/04/19 07:24:06;;;;;;;;;;;18.70;44.30;;;;;;4993306;28;20028;-54
2023/04/19 07:26:32;;;;;;;;;;;18.60;44.60;;;;;;4990021;28;19918;-54
2023/04/19 07:28:58;;;;;;;;;;;18.60;44.60;;;;;;4991882;28;19922;-54
2023/04/19 07:31:24;;;;;;;;;;;18.70;44.50;;;;;;5001275;28;19917;-55
2023/04/19 07:33:50;;;;;;;;;;;18.70;44.90;;;;;;4987979;28;19972;-54
2023/04/19 07:36:15;;;;;;;;;;;18.70;45.10;;;;;;4987182;28;20378;-54
2023/04/19 07:38:41;;;;;;;;;;;18.70;45.20;;;;;;4987108;28;19988;-54
2023/04/19 07:41:06;;;;;;;;;;;18.70;45.10;;;;;;4986929;28;20082;-54
2023/04/19 07:43:32;;;;;;;;;;;18.70;45.40;;;;;;4985531;28;19921;-53
2023/04/19 07:45:57;;;;;;;;;;;18.70;45.50;;;;;;4986543;28;19957;-53
2023/04/19 07:48:22;;;;;;;;;;;18.70;45.80;;;;;;4983829;28;19914;-53
2023/04/19 07:50:48;;;;;;;;;;;18.70;45.70;;;;;;4987580;28;19921;-53
2023/04/19 07:53:14;;;;;;;;;;;18.80;45.40;;;;;;4981383;28;19945;-53
2023/04/19 07:55:39;;;;;;;;;;;18.80;45.60;;;;;;4986133;28;19914;-54
2023/04/19 07:58:05;;;;;;;;;;;18.70;45.30;;;;;;4984113;28;19925;-54
2023/04/19 08:00:33;;;;;;;;;;;18.80;45.50;;;;;;4983707;28;19922;-54
2023/04/19 08:02:59;;;;;;;;;;;18.80;45.10;;;;;;4983884;28;19921;-54
2023/04/19 08:05:25;;;;;;;;;;;18.90;44.90;;;;;;4986131;28;19917;-55
2023/04/19 08:07:51;;;;;;;;;;;18.90;45.20;;;;;;4986229;28;19987;-54
2023/04/19 08:10:16;;;;;;;;;;;18.90;45.20;;;;;;4992775;28;19917;-54
2023/04/19 08:12:42;;;;;;;;;;;19.00;44.70;;;;;;4992296;28;20000;-53
2023/04/19 08:15:07;;;;;;;;;;;19.00;44.90;;;;;;4985660;28;19922;-53
2023/04/19 08:17:33;;;;;;;;;;;19.00;44.90;;;;;;4989323;28;20036;-53
2023/04/19 08:19:59;;;;;;;;;;;18.90;45.40;;;;;;4987523;28;19922;-54
2023/04/19 08:22:24;;;;;;;;;;;18.80;45.10;;;;;;4987718;28;19922;-55
2023/04/19 08:24:53;;;;;;;;;;;18.80;45.30;;;;;;4988192;28;19960;-55
2023/04/19 08:27:18;;;;;;;;;;;18.80;45.10;;;;;;4988148;28;19918;-54
2023/04/19 08:29:44;;;;;;;;;;;18.90;44.80;;;;;;4997360;28;19943;-54
2023/04/19 08:32:10;;;;;;;;;;;18.90;45.10;;;;;;5000832;28;19914;-53
2023/04/19 08:34:36;;;;;;;;;;;18.80;45.30;;;;;;5024749;28;19914;-53
2023/04/19 08:37:02;;;;;;;;;;;18.80;45.10;;;;;;4999487;28;19917;-54
2023/04/19 08:39:28;;;;;;;;;;;18.80;45.00;;;;;;4991383;28;19922;-53
2023/04/19 08:41:53;;;;;;;;;;;18.90;45.20;;;;;;5008783;28;19913;-54
2023/04/19 08:44:19;;;;;;;;;;;18.90;45.20;;;;;;5014771;28;19913;-54
2023/04/19 08:46:44;;;;;;;;;;;18.90;45.30;;;;;;5028457;28;19917;-54
2023/04/19 08:49:10;;;;;;;;;;;18.90;45.30;;;;;;5005679;28;19910;-54
2023/04/19 08:51:36;;;;;;;;;;;18.90;45.30;;;;;;4995072;28;19952;-54
2023/04/19 08:54:06;;;;;;;;;;;18.90;45.30;;;;;;4993117;28;20020;-54
2023/04/19 08:56:32;;;;;;;;;;;18.90;45.90;;;;;;5027491;28;19950;-55
2023/04/19 08:58:57;;;;;;;;;;;19.00;45.10;;;;;;4992903;28;20015;-54
2023/04/19 09:01:23;;;;;;;;;;;19.00;44.90;;;;;;4993047;28;19922;-54
2023/04/19 09:03:49;;;;;;;;;;;19.10;45.10;;;;;;4999448;28;20004;-54
2023/04/19 09:06:14;;;;;;;;;;;19.10;45.10;;;;;;4978920;28;20476;-54
2023/04/19 09:08:40;;;;;;;;;;;19.10;45.20;;;;;;4985923;28;20300;-54
2023/04/19 09:11:06;;;;;;;;;;;19.20;45.40;;;;;;4986184;28;19926;-54
2023/04/19 09:13:31;;;;;;;;;;;19.20;45.10;;;;;;4985202;28;19918;-53
2023/04/19 09:15:59;;;;;;;;;;;19.10;45.10;;;;;;4985509;28;19921;-54
2023/04/19 09:18:24;;;;;;;;;;;19.10;45.20;;;;;;5007670;28;19925;-55
2023/04/19 09:20:55;;;;;;;;;;;19.10;45.20;;;;;;4989135;28;19913;-53
2023/04/19 09:23:21;;;;;;;;;;;19.10;45.00;;;;;;4984235;28;19913;-54
2023/04/19 09:25:56;;;;;;;;;;;19.20;45.20;;;;;;4985036;28;19925;-54
2023/04/19 09:28:22;;;;;;;;;;;19.20;45.00;;;;;;4988540;28;19933;-54
2023/04/19 09:30:48;;;;;;;;;;;19.20;44.90;;;;;;4985448;28;19929;-54
2023/04/19 09:33:19;;;;;;;;;;;19.30;45.00;;;;;;4983168;28;20012;-54
2023/04/19 09:35:48;;;;;;;;;;;19.30;45.00;;;;;;4997283;28;19980;-54
2023/04/19 09:38:14;;;;;;;;;;;19.30;44.80;;;;;;4983284;28;20012;-55
2023/04/19 09:40:39;;;;;;;;;;;19.30;45.00;;;;;;4983956;28;20017;-53
2023/04/19 09:43:05;;;;;;;;;;;19.30;44.70;;;;;;5032302;28;19929;-55
2023/04/19 09:45:44;;;;;;;;;;;19.30;44.50;;;;;;4985276;28;20290;-54
2023/04/19 09:48:09;;;;;;;;;;;19.30;44.50;;;;;;4983838;28;19929;-53
2023/04/19 09:50:35;;;;;;;;;;;19.30;44.50;;;;;;4985509;28;20278;-54
2023/04/19 09:53:01;;;;;;;;;;;19.30;44.80;;;;;;4980700;28;19921;-55
2023/04/19 09:55:26;;;;;;;;;;;19.30;44.90;;;;;;4984292;28;19918;-54
2023/04/19 09:57:52;;;;;;;;;;;19.30;44.80;;;;;;4985540;28;19929;-54
2023/04/19 10:00:17;;;;;;;;;;;19.40;44.70;;;;;;4989292;28;19922;-53
2023/04/19 10:02:43;;;;;;;;;;;19.40;44.90;;;;;;5015950;28;19967;-54
2023/04/19 10:05:09;;;;;;;;;;;19.40;44.50;;;;;;4986160;28;19918;-54
2023/04/19 10:07:34;;;;;;;;;;;19.40;44.60;;;;;;4987844;28;19918;-54
2023/04/19 10:10:00;;;;;;;;;;;19.40;44.60;;;;;;4989240;28;19965;-53
2023/04/19 10:12:25;;;;;;;;;;;19.40;44.50;;;;;;5021516;28;19922;-54
2023/04/19 10:14:55;;;;;;;;;;;19.40;44.40;;;;;;4988175;28;19929;-54
2023/04/19 10:17:21;;;;;;;;;;;19.40;44.50;;;;;;4988173;28;20064;-53
2023/04/19 10:19:46;;;;;;;;;;;19.40;44.70;;;;;;4986398;28;20000;-54
2023/04/19 10:22:13;;;;;;;;;;;19.40;44.80;;;;;;4987087;28;19925;-54
2023/04/19 10:24:38;;;;;;;;;;;19.40;44.70;;;;;;5017073;28;20267;-54
2023/04/19 10:27:06;;;;;;;;;;;19.40;44.70;;;;;;4988801;28;19917;-54
2023/04/19 10:29:53;;;;;;;;;;;19.40;44.50;;;;;;4992788;28;19924;-54
2023/04/19 10:32:18;;;;;;;;;;;19.50;44.50;;;;;;4999301;28;19921;-55
2023/04/19 10:34:44;;;;;;;;;;;19.50;44.50;;;;;;5030230;28;20369;-55
2023/04/19 10:37:10;;;;;;;;;;;19.40;44.20;;;;;;4999143;28;19967;-56
2023/04/19 10:39:42;;;;;;;;;;;19.40;44.20;;;;;;5034891;28;19925;-54
2023/04/19 10:42:07;;;;;;;;;;;19.40;44.20;;;;;;5009090;28;19960;-54
2023/04/19 10:44:33;;;;;;;;;;;19.50;44.10;;;;;;5002401;28;19917;-54
2023/04/19 10:46:58;;;;;;;;;;;19.50;44.00;;;;;;4996007;28;19917;-54
2023/04/19 10:49:25;;;;;;;;;;;19.40;43.90;;;;;;5003102;28;19968;-55
2023/04/19 10:51:59;;;;;;;;;;;19.40;44.70;;;;;;5001926;28;19921;-55
2023/04/19 10:54:32;;;;;;;;;;;19.40;44.10;;;;;;4988088;28;19914;-54
2023/04/19 10:57:07;;;;;;;;;;;19.40;43.90;;;;;;4993627;28;19914;-54
2023/04/19 10:59:43;;;;;;;;;;;19.50;44.00;;;;;;4996100;28;19910;-54
2023/04/19 11:02:20;;;;;;;;;;;19.50;43.90;;;;;;4992089;28;21990;-54
2023/04/19 11:04:49;;;;;;;;;;;19.60;43.80;;;;;;5030282;28;19918;-53
2023/04/19 11:07:16;;;;;;;;;;;19.70;43.40;;;;;;4987894;28;19946;-54
2023/04/19 11:09:44;;;;;;;;;;;19.70;43.20;;;;;;4987612;28;20575;-54
2023/04/19 11:12:10;;;;;;;;;;;19.80;43.20;;;;;;4988061;28;19914;-54
2023/04/19 11:14:38;;;;;;;;;;;19.90;43.00;;;;;;4988802;28;19917;-54
2023/04/19 11:17:13;;;;;;;;;;;19.90;42.70;;;;;;5019407;28;19942;-54
2023/04/19 11:19:41;;;;;;;;;;;20.00;42.60;;;;;;4990583;28;19922;-54
2023/04/19 11:22:06;;;;;;;;;;;20.00;42.30;;;;;;4991779;28;19932;-54
2023/04/19 11:24:33;;;;;;;;;;;20.10;42.90;;;;;;4988847;28;19918;-54
2023/04/19 11:26:59;;;;;;;;;;;20.10;42.10;;;;;;4988568;28;20452;-55
2023/04/19 11:29:24;;;;;;;;;;;20.10;42.20;;;;;;4988656;28;19925;-54
2023/04/19 11:31:50;;;;;;;;;;;20.10;42.20;;;;;;4988234;28;19925;-54
2023/04/19 11:34:15;;;;;;;;;;;20.10;42.40;;;;;;4988350;28;20437;-54
2023/04/19 11:36:47;;;;;;;;;;;20.00;42.20;;;;;;4987368;28;19921;-54
2023/04/19 11:39:13;;;;;;;;;;;20.00;42.20;;;;;;4988253;28;19925;-54
2023/04/19 11:41:38;;;;;;;;;;;20.00;42.10;;;;;;4987652;28;19929;-54
2023/04/19 11:44:11;;;;;;;;;;;20.00;42.10;;;;;;4987958;28;20409;-54
2023/04/19 11:46:36;;;;;;;;;;;19.90;42.10;;;;;;4991484;28;19914;-54
2023/04/19 11:49:02;;;;;;;;;;;19.90;42.10;;;;;;4996787;28;19917;-55
2023/04/19 11:51:27;;;;;;;;;;;19.90;42.20;;;;;;4993761;28;19925;-54
2023/04/19 11:53:53;;;;;;;;;;;19.80;42.10;;;;;;4985760;28;19971;-54
2023/04/19 11:56:18;;;;;;;;;;;19.80;42.20;;;;;;4988755;28;19921;-53
2023/04/19 11:58:46;;;;;;;;;;;19.80;41.90;;;;;;4985996;28;19917;-54
2023/04/19 12:01:12;;;;;;;;;;;19.80;41.90;;;;;;5014732;28;20004;-54
2023/04/19 12:03:43;;;;;;;;;;;19.80;42.20;;;;;;4987125;28;20001;-54
2023/04/19 12:06:09;;;;;;;;;;;19.70;42.00;;;;;;5023740;28;20282;-54
2023/04/19 12:08:35;;;;;;;;;;;19.70;42.00;;;;;;4986880;28;19914;-54
2023/04/19 12:11:02;;;;;;;;;;;19.70;41.90;;;;;;5002157;28;19924;-54
2023/04/19 12:13:27;;;;;;;;;;;19.70;41.90;;;;;;4988456;28;19921;-54
2023/04/19 12:15:53;;;;;;;;;;;19.80;41.90;;;;;;4991601;28;19918;-54
2023/04/19 12:18:18;;;;;;;;;;;19.70;41.60;;;;;;4992333;28;19917;-54
2023/04/19 12:20:45;;;;;;;;;;;19.70;41.60;;;;;;4993452;28;19918;-54
2023/04/19 12:23:12;;;;;;;;;;;19.70;41.70;;;;;;4992099;28;20019;-54
2023/04/19 12:25:38;;;;;;;;;;;19.70;41.90;;;;;;5023597;28;19918;-54
2023/04/19 12:28:03;;;;;;;;;;;19.70;41.70;;;;;;4989717;28;19965;-54
2023/04/19 12:30:29;;;;;;;;;;;19.90;41.50;;;;;;4992499;28;19918;-54
2023/04/19 12:32:54;;;;;;;;;;;19.90;41.20;;;;;;4987950;28;19977;-53
2023/04/19 12:35:24;;;;;;;;;;;19.90;41.30;;;;;;4992336;28;19957;-55
2023/04/19 12:37:50;;;;;;;;;;;19.80;41.50;;;;;;5025070;28;19972;-54
2023/04/19 12:40:16;;;;;;;;;;;19.80;41.40;;;;;;5004091;28;19925;-54
2023/04/19 12:42:41;;;;;;;;;;;19.80;41.30;;;;;;4990979;28;20282;-54
2023/04/19 12:45:07;;;;;;;;;;;19.90;41.20;;;;;;4994237;28;19961;-54
2023/04/19 12:47:32;;;;;;;;;;;20.00;41.20;;;;;;4994165;28;19917;-54
2023/04/19 12:49:58;;;;;;;;;;;20.00;41.00;;;;;;4994615;28;19924;-54
2023/04/19 12:52:23;;;;;;;;;;;20.10;40.80;;;;;;4994773;28;19914;-54
2023/04/19 12:54:49;;;;;;;;;;;20.10;40.60;;;;;;4996971;28;19918;-54
2023/04/19 12:57:15;;;;;;;;;;;20.10;40.80;;;;;;5002403;28;19940;-54
2023/04/19 12:59:40;;;;;;;;;;;20.10;40.60;;;;;;5014511;28;20288;-54
2023/04/19 13:02:05;;;;;;;;;;;20.10;40.50;;;;;;4989715;28;19925;-55
2023/04/19 13:04:31;;;;;;;;;;;20.10;41.00;;;;;;4992556;28;20020;-54
2023/04/19 13:06:56;;;;;;;;;;;20.00;40.80;;;;;;5005447;28;20306;-54
2023/04/19 13:09:22;;;;;;;;;;;20.00;40.80;;;;;;4992879;28;19913;-54
2023/04/19 13:11:47;;;;;;;;;;;20.00;41.00;;;;;;4991287;28;19921;-54
2023/04/19 13:14:13;;;;;;;;;;;20.00;40.90;;;;;;4993730;28;20358;-54
2023/04/19 13:16:38;;;;;;;;;;;20.00;40.90;;;;;;4988414;28;19918;-54
2023/04/19 13:19:04;;;;;;;;;;;19.90;40.90;;;;;;5008344;28;20028;-54
2023/04/19 13:21:29;;;;;;;;;;;20.00;40.90;;;;;;4993141;28;19914;-54
2023/04/19 13:23:56;;;;;;;;;;;20.00;40.80;;;;;;4993071;28;19914;-54
2023/04/19 13:26:22;;;;;;;;;;;20.00;40.50;;;;;;4992166;28;19914;-54
2023/04/19 13:28:48;;;;;;;;;;;20.00;40.60;;;;;;4993684;28;19914;-54
2023/04/19 13:31:13;;;;;;;;;;;20.00;40.60;;;;;;4993205;28;19925;-54
2023/04/19 13:33:39;;;;;;;;;;;20.00;40.30;;;;;;4993516;28;20301;-54
2023/04/19 13:36:04;;;;;;;;;;;19.90;40.60;;;;;;4992860;28;19914;-54
2023/04/19 13:38:30;;;;;;;;;;;20.00;40.70;;;;;;4992150;28;20019;-53
2023/04/19 13:40:55;;;;;;;;;;;19.90;40.60;;;;;;4994958;28;19925;-54
2023/04/19 13:43:21;;;;;;;;;;;19.90;40.40;;;;;;4993260;28;19913;-54
2023/04/19 13:45:46;;;;;;;;;;;19.90;40.40;;;;;;4981765;28;19914;-54
2023/04/19 13:48:12;;;;;;;;;;;19.90;40.50;;;;;;4988788;28;20496;-54
2023/04/19 13:50:37;;;;;;;;;;;19.90;40.60;;;;;;4980374;28;20009;-55
2023/04/19 13:53:03;;;;;;;;;;;20.00;40.30;;;;;;5000663;28;19921;-55
2023/04/19 13:55:28;;;;;;;;;;;20.10;40.60;;;;;;5017443;28;19925;-55
2023/04/19 13:57:53;;;;;;;;;;;20.10;40.40;;;;;;4990038;28;19926;-54
2023/04/19 14:00:19;;;;;;;;;;;20.10;40.20;;;;;;5006076;28;19950;-54
2023/04/19 14:02:45;;;;;;;;;;;20.00;40.60;;;;;;4995329;28;19961;-55
2023/04/19 14:05:10;;;;;;;;;;;20.00;40.70;;;;;;4987209;28;19921;-53
2023/04/19 14:07:39;;;;;;;;;;;20.10;40.60;;;;;;4999965;28;20370;-53
2023/04/19 14:10:06;;;;;;;;;;;20.10;40.50;;;;;;4984005;28;19929;-55